sensor_id;sensor_type;location;lat;lon;timestamp;P1;durP1;ratioP1;P2;durP2;ratioP2
18387;SDS011;9320;50.256;19.026;2023-05-29T00:00:46;13.73;;;8.38;;
18387;SDS011;9320;50.256;19.026;2023-05-29T00:03:14;13.30;;;8.98;;
18387;SDS011;9320;50.256;19.026;2023-05-29T00:05:45;15.43;;;8.57;;
18387;SDS011;9320;50.256;19.026;2023-05-29T00:08:13;16.30;;;8.27;;
18387;SDS011;9320;50.256;19.026;2023-05-29T00:10:41;16.75;;;9.05;;
18387;SDS011;9320;50.256;19.026;2023-05-29T00:13:09;13.30;;;8.25;;
18387;SDS011;9320;50.256;19.026;2023-05-29T00:15:37;14.73;;;8.80;;
18387;SDS011;9320;50.256;19.026;2023-05-29T00:18:05;14.63;;;8.27;;
18387;SDS011;9320;50.256;19.026;2023-05-29T00:20:34;12.80;;;8.07;;
18387;SDS011;9320;50.256;19.026;2023-05-29T00:23:03;12.60;;;8.00;;
18387;SDS011;9320;50.256;19.026;2023-05-29T00:25:32;10.90;;;7.73;;
18387;SDS011;9320;50.256;19.026;2023-05-29T00:28:00;15.93;;;8.53;;
18387;SDS011;9320;50.256;19.026;2023-05-29T00:30:28;17.17;;;7.87;;
18387;SDS011;9320;50.256;19.026;2023-05-29T00:32:56;11.13;;;7.63;;
18387;SDS011;9320;50.256;19.026;2023-05-29T00:35:25;13.30;;;7.60;;
18387;SDS011;9320;50.256;19.026;2023-05-29T00:37:53;13.33;;;7.87;;
18387;SDS011;9320;50.256;19.026;2023-05-29T00:40:23;13.57;;;7.63;;
18387;SDS011;9320;50.256;19.026;2023-05-29T00:42:51;10.57;;;7.40;;
18387;SDS011;9320;50.256;19.026;2023-05-29T00:45:19;15.33;;;7.73;;
18387;SDS011;9320;50.256;19.026;2023-05-29T00:47:47;11.57;;;7.53;;
18387;SDS011;9320;50.256;19.026;2023-05-29T00:50:15;14.20;;;7.50;;
18387;SDS011;9320;50.256;19.026;2023-05-29T00:52:44;15.00;;;7.43;;
18387;SDS011;9320;50.256;19.026;2023-05-29T00:55:13;12.50;;;8.03;;
18387;SDS011;9320;50.256;19.026;2023-05-29T00:57:42;11.43;;;7.47;;
18387;SDS011;9320;50.256;19.026;2023-05-29T01:00:12;10.50;;;7.33;;
18387;SDS011;9320;50.256;19.026;2023-05-29T01:02:41;9.13;;;7.37;;
18387;SDS011;9320;50.256;19.026;2023-05-29T01:05:11;10.47;;;7.70;;
18387;SDS011;9320;50.256;19.026;2023-05-29T01:07:41;12.43;;;7.70;;
18387;SDS011;9320;50.256;19.026;2023-05-29T01:10:09;9.23;;;7.27;;
18387;SDS011;9320;50.256;19.026;2023-05-29T01:12:40;10.93;;;7.00;;
18387;SDS011;9320;50.256;19.026;2023-05-29T01:15:17;10.33;;;7.13;;
18387;SDS011;9320;50.256;19.026;2023-05-29T01:17:57;13.80;;;7.33;;
18387;SDS011;9320;50.256;19.026;2023-05-29T01:20:44;11.37;;;6.90;;
18387;SDS011;9320;50.256;19.026;2023-05-29T01:23:27;12.30;;;7.37;;
18387;SDS011;9320;50.256;19.026;2023-05-29T01:26:11;12.73;;;7.63;;
18387;SDS011;9320;50.256;19.026;2023-05-29T01:28:51;10.20;;;7.03;;
18387;SDS011;9320;50.256;19.026;2023-05-29T01:31:20;10.40;;;6.87;;
18387;SDS011;9320;50.256;19.026;2023-05-29T01:33:52;12.43;;;7.30;;
18387;SDS011;9320;50.256;19.026;2023-05-29T01:36:21;9.73;;;7.17;;
18387;SDS011;9320;50.256;19.026;2023-05-29T01:38:50;13.43;;;7.47;;
18387;SDS011;9320;50.256;19.026;2023-05-29T01:41:20;14.03;;;7.60;;
18387;SDS011;9320;50.256;19.026;2023-05-29T01:43:51;10.60;;;7.53;;
18387;SDS011;9320;50.256;19.026;2023-05-29T01:46:20;11.17;;;7.30;;
18387;SDS011;9320;50.256;19.026;2023-05-29T01:48:49;13.07;;;7.53;;
18387;SDS011;9320;50.256;19.026;2023-05-29T01:51:17;11.37;;;7.57;;
18387;SDS011;9320;50.256;19.026;2023-05-29T01:53:46;12.20;;;7.43;;
18387;SDS011;9320;50.256;19.026;2023-05-29T01:56:14;12.30;;;7.63;;
18387;SDS011;9320;50.256;19.026;2023-05-29T01:58:42;12.90;;;7.63;;
18387;SDS011;9320;50.256;19.026;2023-05-29T02:01:12;12.10;;;7.43;;
18387;SDS011;9320;50.256;19.026;2023-05-29T02:03:41;13.33;;;7.83;;
18387;SDS011;9320;50.256;19.026;2023-05-29T02:06:09;12.93;;;7.00;;
18387;SDS011;9320;50.256;19.026;2023-05-29T02:08:37;10.37;;;7.60;;
18387;SDS011;9320;50.256;19.026;2023-05-29T02:11:05;12.43;;;7.47;;
18387;SDS011;9320;50.256;19.026;2023-05-29T02:13:34;11.43;;;7.70;;
18387;SDS011;9320;50.256;19.026;2023-05-29T02:16:02;11.40;;;8.07;;
18387;SDS011;9320;50.256;19.026;2023-05-29T02:18:31;11.67;;;7.27;;
18387;SDS011;9320;50.256;19.026;2023-05-29T02:21:00;11.20;;;7.77;;
18387;SDS011;9320;50.256;19.026;2023-05-29T02:23:29;14.23;;;7.50;;
18387;SDS011;9320;50.256;19.026;2023-05-29T02:25:57;14.70;;;7.90;;
18387;SDS011;9320;50.256;19.026;2023-05-29T02:28:25;12.37;;;7.43;;
18387;SDS011;9320;50.256;19.026;2023-05-29T02:30:53;11.60;;;7.57;;
18387;SDS011;9320;50.256;19.026;2023-05-29T02:33:22;12.23;;;7.70;;
18387;SDS011;9320;50.256;19.026;2023-05-29T02:35:51;12.70;;;8.23;;
18387;SDS011;9320;50.256;19.026;2023-05-29T02:38:19;9.77;;;7.23;;
18387;SDS011;9320;50.256;19.026;2023-05-29T02:40:47;13.10;;;8.00;;
18387;SDS011;9320;50.256;19.026;2023-05-29T02:43:15;13.63;;;7.80;;
18387;SDS011;9320;50.256;19.026;2023-05-29T02:45:43;13.40;;;7.97;;
18387;SDS011;9320;50.256;19.026;2023-05-29T02:48:11;13.33;;;8.33;;
18387;SDS011;9320;50.256;19.026;2023-05-29T02:50:39;14.77;;;7.97;;
18387;SDS011;9320;50.256;19.026;2023-05-29T02:53:09;12.70;;;8.57;;
18387;SDS011;9320;50.256;19.026;2023-05-29T02:55:37;10.60;;;8.03;;
18387;SDS011;9320;50.256;19.026;2023-05-29T02:58:05;12.80;;;7.73;;
18387;SDS011;9320;50.256;19.026;2023-05-29T03:00:34;13.18;;;8.27;;
18387;SDS011;9320;50.256;19.026;2023-05-29T03:03:02;13.30;;;8.07;;
18387;SDS011;9320;50.256;19.026;2023-05-29T03:05:30;11.77;;;8.27;;
18387;SDS011;9320;50.256;19.026;2023-05-29T03:07:58;12.00;;;7.80;;
18387;SDS011;9320;50.256;19.026;2023-05-29T03:10:28;13.37;;;8.27;;
18387;SDS011;9320;50.256;19.026;2023-05-29T03:12:56;13.40;;;7.63;;
18387;SDS011;9320;50.256;19.026;2023-05-29T03:15:24;11.37;;;8.13;;
18387;SDS011;9320;50.256;19.026;2023-05-29T03:17:52;14.77;;;8.70;;
18387;SDS011;9320;50.256;19.026;2023-05-29T03:20:20;11.93;;;8.00;;
18387;SDS011;9320;50.256;19.026;2023-05-29T03:22:48;17.53;;;9.40;;
18387;SDS011;9320;50.256;19.026;2023-05-29T03:25:16;10.97;;;8.33;;
18387;SDS011;9320;50.256;19.026;2023-05-29T03:27:46;14.80;;;8.53;;
18387;SDS011;9320;50.256;19.026;2023-05-29T03:30:14;14.30;;;8.27;;
18387;SDS011;9320;50.256;19.026;2023-05-29T03:32:42;13.47;;;8.00;;
18387;SDS011;9320;50.256;19.026;2023-05-29T03:35:10;22.90;;;8.13;;
18387;SDS011;9320;50.256;19.026;2023-05-29T03:37:38;12.93;;;7.80;;
18387;SDS011;9320;50.256;19.026;2023-05-29T03:40:07;17.43;;;8.33;;
18387;SDS011;9320;50.256;19.026;2023-05-29T03:42:36;17.80;;;7.97;;
18387;SDS011;9320;50.256;19.026;2023-05-29T03:45:05;19.40;;;8.97;;
18387;SDS011;9320;50.256;19.026;2023-05-29T03:47:34;16.87;;;8.17;;
18387;SDS011;9320;50.256;19.026;2023-05-29T03:50:03;15.07;;;8.13;;
18387;SDS011;9320;50.256;19.026;2023-05-29T03:52:31;12.03;;;8.20;;
18387;SDS011;9320;50.256;19.026;2023-05-29T03:54:59;15.00;;;8.67;;
18387;SDS011;9320;50.256;19.026;2023-05-29T03:57:28;12.70;;;8.73;;
18387;SDS011;9320;50.256;19.026;2023-05-29T03:59:56;14.33;;;8.57;;
18387;SDS011;9320;50.256;19.026;2023-05-29T04:02:25;13.30;;;8.47;;
18387;SDS011;9320;50.256;19.026;2023-05-29T04:04:54;15.83;;;8.57;;
18387;SDS011;9320;50.256;19.026;2023-05-29T04:07:22;15.53;;;8.40;;
18387;SDS011;9320;50.256;19.026;2023-05-29T04:09:50;16.13;;;9.00;;
18387;SDS011;9320;50.256;19.026;2023-05-29T04:12:18;13.40;;;8.50;;
18387;SDS011;9320;50.256;19.026;2023-05-29T04:14:46;14.97;;;8.63;;
18387;SDS011;9320;50.256;19.026;2023-05-29T04:17:14;13.60;;;9.37;;
18387;SDS011;9320;50.256;19.026;2023-05-29T04:19:44;13.77;;;8.43;;
18387;SDS011;9320;50.256;19.026;2023-05-29T04:22:12;17.93;;;8.40;;
18387;SDS011;9320;50.256;19.026;2023-05-29T04:24:40;19.90;;;8.60;;
18387;SDS011;9320;50.256;19.026;2023-05-29T04:27:08;11.97;;;8.27;;
18387;SDS011;9320;50.256;19.026;2023-05-29T04:29:39;19.60;;;9.20;;
18387;SDS011;9320;50.256;19.026;2023-05-29T04:32:08;19.20;;;9.17;;
18387;SDS011;9320;50.256;19.026;2023-05-29T04:34:37;22.57;;;9.27;;
18387;SDS011;9320;50.256;19.026;2023-05-29T04:37:07;14.50;;;8.10;;
18387;SDS011;9320;50.256;19.026;2023-05-29T04:39:35;15.97;;;8.60;;
18387;SDS011;9320;50.256;19.026;2023-05-29T04:42:03;13.02;;;8.73;;
18387;SDS011;9320;50.256;19.026;2023-05-29T04:44:32;20.33;;;9.57;;
18387;SDS011;9320;50.256;19.026;2023-05-29T04:47:00;13.93;;;8.13;;
18387;SDS011;9320;50.256;19.026;2023-05-29T04:49:29;17.10;;;8.87;;
18387;SDS011;9320;50.256;19.026;2023-05-29T04:51:57;15.07;;;8.30;;
18387;SDS011;9320;50.256;19.026;2023-05-29T04:54:28;17.13;;;8.27;;
18387;SDS011;9320;50.256;19.026;2023-05-29T04:56:56;13.33;;;7.73;;
18387;SDS011;9320;50.256;19.026;2023-05-29T04:59:24;10.40;;;8.30;;
18387;SDS011;9320;50.256;19.026;2023-05-29T05:01:52;16.30;;;8.30;;
18387;SDS011;9320;50.256;19.026;2023-05-29T05:04:20;16.50;;;7.80;;
18387;SDS011;9320;50.256;19.026;2023-05-29T05:06:48;13.53;;;8.00;;
18387;SDS011;9320;50.256;19.026;2023-05-29T05:09:17;14.67;;;8.40;;
18387;SDS011;9320;50.256;19.026;2023-05-29T05:11:47;13.50;;;7.57;;
18387;SDS011;9320;50.256;19.026;2023-05-29T05:14:15;13.98;;;7.97;;
18387;SDS011;9320;50.256;19.026;2023-05-29T05:16:43;17.65;;;7.85;;
18387;SDS011;9320;50.256;19.026;2023-05-29T05:19:11;12.00;;;7.80;;
18387;SDS011;9320;50.256;19.026;2023-05-29T05:21:39;12.75;;;7.25;;
18387;SDS011;9320;50.256;19.026;2023-05-29T05:24:07;26.20;;;8.55;;
18387;SDS011;9320;50.256;19.026;2023-05-29T05:26:35;16.27;;;7.63;;
18387;SDS011;9320;50.256;19.026;2023-05-29T05:29:04;12.55;;;7.20;;
18387;SDS011;9320;50.256;19.026;2023-05-29T05:31:32;10.90;;;6.82;;
18387;SDS011;9320;50.256;19.026;2023-05-29T05:34:00;16.60;;;7.25;;
18387;SDS011;9320;50.256;19.026;2023-05-29T05:36:28;10.65;;;6.60;;
18387;SDS011;9320;50.256;19.026;2023-05-29T05:38:57;8.27;;;6.70;;
18387;SDS011;9320;50.256;19.026;2023-05-29T05:41:25;17.92;;;7.40;;
18387;SDS011;9320;50.256;19.026;2023-05-29T05:43:54;9.40;;;7.18;;
18387;SDS011;9320;50.256;19.026;2023-05-29T05:46:24;16.80;;;7.85;;
18387;SDS011;9320;50.256;19.026;2023-05-29T05:48:53;10.25;;;7.30;;
18387;SDS011;9320;50.256;19.026;2023-05-29T05:51:23;12.43;;;7.88;;
18387;SDS011;9320;50.256;19.026;2023-05-29T05:53:51;16.88;;;6.90;;
18387;SDS011;9320;50.256;19.026;2023-05-29T05:56:19;11.60;;;7.00;;
18387;SDS011;9320;50.256;19.026;2023-05-29T05:58:48;12.52;;;7.20;;
18387;SDS011;9320;50.256;19.026;2023-05-29T06:01:17;17.00;;;8.40;;
18387;SDS011;9320;50.256;19.026;2023-05-29T06:03:46;16.50;;;7.25;;
18387;SDS011;9320;50.256;19.026;2023-05-29T06:06:15;15.15;;;7.78;;
18387;SDS011;9320;50.256;19.026;2023-05-29T06:08:45;15.13;;;7.47;;
18387;SDS011;9320;50.256;19.026;2023-05-29T06:11:14;9.52;;;7.97;;
18387;SDS011;9320;50.256;19.026;2023-05-29T06:13:43;17.42;;;7.25;;
18387;SDS011;9320;50.256;19.026;2023-05-29T06:16:11;10.88;;;7.70;;
18387;SDS011;9320;50.256;19.026;2023-05-29T06:18:40;12.73;;;7.72;;
18387;SDS011;9320;50.256;19.026;2023-05-29T06:21:09;20.25;;;8.05;;
18387;SDS011;9320;50.256;19.026;2023-05-29T06:23:40;19.38;;;8.00;;
18387;SDS011;9320;50.256;19.026;2023-05-29T06:26:08;14.48;;;7.80;;
18387;SDS011;9320;50.256;19.026;2023-05-29T06:28:37;19.67;;;8.40;;
18387;SDS011;9320;50.256;19.026;2023-05-29T06:31:06;20.45;;;7.90;;
18387;SDS011;9320;50.256;19.026;2023-05-29T06:33:35;15.95;;;8.23;;
18387;SDS011;9320;50.256;19.026;2023-05-29T06:36:04;16.35;;;8.10;;
18387;SDS011;9320;50.256;19.026;2023-05-29T06:38:34;12.95;;;7.25;;
18387;SDS011;9320;50.256;19.026;2023-05-29T06:41:02;15.98;;;7.47;;
18387;SDS011;9320;50.256;19.026;2023-05-29T06:43:30;12.50;;;7.72;;
18387;SDS011;9320;50.256;19.026;2023-05-29T06:45:58;12.98;;;8.13;;
18387;SDS011;9320;50.256;19.026;2023-05-29T06:48:26;21.02;;;8.10;;
18387;SDS011;9320;50.256;19.026;2023-05-29T06:50:54;26.02;;;8.10;;
18387;SDS011;9320;50.256;19.026;2023-05-29T06:53:22;14.18;;;8.38;;
18387;SDS011;9320;50.256;19.026;2023-05-29T06:55:52;16.52;;;8.75;;
18387;SDS011;9320;50.256;19.026;2023-05-29T06:58:21;18.55;;;9.25;;
18387;SDS011;9320;50.256;19.026;2023-05-29T07:00:50;14.73;;;7.65;;
18387;SDS011;9320;50.256;19.026;2023-05-29T07:03:18;13.05;;;7.63;;
18387;SDS011;9320;50.256;19.026;2023-05-29T07:05:46;16.33;;;7.60;;
18387;SDS011;9320;50.256;19.026;2023-05-29T07:08:15;16.92;;;7.95;;
18387;SDS011;9320;50.256;19.026;2023-05-29T07:10:43;12.77;;;8.10;;
18387;SDS011;9320;50.256;19.026;2023-05-29T07:13:14;17.90;;;7.53;;
18387;SDS011;9320;50.256;19.026;2023-05-29T07:15:44;20.48;;;9.32;;
18387;SDS011;9320;50.256;19.026;2023-05-29T07:18:12;17.83;;;9.30;;
18387;SDS011;9320;50.256;19.026;2023-05-29T07:20:41;18.60;;;10.85;;
18387;SDS011;9320;50.256;19.026;2023-05-29T07:23:09;24.13;;;11.65;;
18387;SDS011;9320;50.256;19.026;2023-05-29T07:25:37;24.55;;;11.05;;
18387;SDS011;9320;50.256;19.026;2023-05-29T07:28:05;25.63;;;12.57;;
18387;SDS011;9320;50.256;19.026;2023-05-29T07:30:48;35.58;;;16.35;;
18387;SDS011;9320;50.256;19.026;2023-05-29T07:33:17;45.08;;;18.73;;
18387;SDS011;9320;50.256;19.026;2023-05-29T07:35:45;39.15;;;18.27;;
18387;SDS011;9320;50.256;19.026;2023-05-29T07:38:13;35.92;;;14.13;;
18387;SDS011;9320;50.256;19.026;2023-05-29T07:40:42;20.35;;;11.30;;
18387;SDS011;9320;50.256;19.026;2023-05-29T07:43:10;20.10;;;9.70;;
18387;SDS011;9320;50.256;19.026;2023-05-29T07:45:38;14.15;;;8.35;;
18387;SDS011;9320;50.256;19.026;2023-05-29T07:48:07;17.58;;;7.80;;
18387;SDS011;9320;50.256;19.026;2023-05-29T07:50:36;13.93;;;6.63;;
18387;SDS011;9320;50.256;19.026;2023-05-29T07:53:04;14.07;;;6.82;;
18387;SDS011;9320;50.256;19.026;2023-05-29T07:55:33;11.38;;;6.18;;
18387;SDS011;9320;50.256;19.026;2023-05-29T07:58:01;12.07;;;6.70;;
18387;SDS011;9320;50.256;19.026;2023-05-29T08:00:29;13.88;;;6.55;;
18387;SDS011;9320;50.256;19.026;2023-05-29T08:02:57;16.45;;;6.22;;
18387;SDS011;9320;50.256;19.026;2023-05-29T08:05:27;13.02;;;6.65;;
18387;SDS011;9320;50.256;19.026;2023-05-29T08:07:55;12.57;;;6.00;;
18387;SDS011;9320;50.256;19.026;2023-05-29T08:10:25;14.30;;;6.00;;
18387;SDS011;9320;50.256;19.026;2023-05-29T08:12:53;10.15;;;6.13;;
18387;SDS011;9320;50.256;19.026;2023-05-29T08:15:21;12.52;;;5.78;;
18387;SDS011;9320;50.256;19.026;2023-05-29T08:17:50;11.70;;;6.55;;
18387;SDS011;9320;50.256;19.026;2023-05-29T08:20:18;8.93;;;6.20;;
18387;SDS011;9320;50.256;19.026;2023-05-29T08:22:48;6.65;;;5.43;;
18387;SDS011;9320;50.256;19.026;2023-05-29T08:25:16;14.30;;;5.70;;
18387;SDS011;9320;50.256;19.026;2023-05-29T08:27:44;9.43;;;5.40;;
18387;SDS011;9320;50.256;19.026;2023-05-29T08:30:12;7.65;;;4.97;;
18387;SDS011;9320;50.256;19.026;2023-05-29T08:32:41;8.20;;;5.60;;
18387;SDS011;9320;50.256;19.026;2023-05-29T08:35:09;12.63;;;5.25;;
18387;SDS011;9320;50.256;19.026;2023-05-29T08:37:37;8.57;;;5.10;;
18387;SDS011;9320;50.256;19.026;2023-05-29T08:40:07;12.98;;;5.07;;
18387;SDS011;9320;50.256;19.026;2023-05-29T08:42:36;6.50;;;5.50;;
18387;SDS011;9320;50.256;19.026;2023-05-29T08:45:11;9.73;;;4.57;;
18387;SDS011;9320;50.256;19.026;2023-05-29T08:47:41;10.27;;;4.82;;
18387;SDS011;9320;50.256;19.026;2023-05-29T08:50:12;10.18;;;4.90;;
18387;SDS011;9320;50.256;19.026;2023-05-29T08:52:42;9.02;;;5.53;;
18387;SDS011;9320;50.256;19.026;2023-05-29T08:55:12;8.25;;;4.70;;
18387;SDS011;9320;50.256;19.026;2023-05-29T08:57:41;13.45;;;4.90;;
18387;SDS011;9320;50.256;19.026;2023-05-29T09:00:11;7.45;;;4.70;;
18387;SDS011;9320;50.256;19.026;2023-05-29T09:02:40;5.68;;;4.97;;
18387;SDS011;9320;50.256;19.026;2023-05-29T09:05:10;11.18;;;4.70;;
18387;SDS011;9320;50.256;19.026;2023-05-29T09:07:38;7.05;;;4.22;;
18387;SDS011;9320;50.256;19.026;2023-05-29T09:10:08;11.52;;;4.78;;
18387;SDS011;9320;50.256;19.026;2023-05-29T09:12:38;9.15;;;4.53;;
18387;SDS011;9320;50.256;19.026;2023-05-29T09:15:08;6.78;;;4.72;;
18387;SDS011;9320;50.256;19.026;2023-05-29T09:17:49;5.80;;;4.32;;
18387;SDS011;9320;50.256;19.026;2023-05-29T09:20:19;8.07;;;4.57;;
18387;SDS011;9320;50.256;19.026;2023-05-29T09:22:53;7.78;;;4.50;;
18387;SDS011;9320;50.256;19.026;2023-05-29T09:25:22;20.40;;;5.78;;
18387;SDS011;9320;50.256;19.026;2023-05-29T09:27:53;13.00;;;5.93;;
18387;SDS011;9320;50.256;19.026;2023-05-29T09:30:36;10.70;;;6.00;;
18387;SDS011;9320;50.256;19.026;2023-05-29T09:33:07;9.57;;;6.28;;
18387;SDS011;9320;50.256;19.026;2023-05-29T09:35:36;12.18;;;5.97;;
18387;SDS011;9320;50.256;19.026;2023-05-29T09:38:06;6.93;;;5.10;;
18387;SDS011;9320;50.256;19.026;2023-05-29T09:40:35;5.88;;;4.80;;
18387;SDS011;9320;50.256;19.026;2023-05-29T09:43:09;10.02;;;5.53;;
18387;SDS011;9320;50.256;19.026;2023-05-29T09:45:38;6.53;;;4.80;;
18387;SDS011;9320;50.256;19.026;2023-05-29T09:48:07;12.63;;;5.65;;
18387;SDS011;9320;50.256;19.026;2023-05-29T09:50:39;11.00;;;5.68;;
18387;SDS011;9320;50.256;19.026;2023-05-29T09:53:15;7.75;;;5.72;;
18387;SDS011;9320;50.256;19.026;2023-05-29T09:55:45;8.57;;;5.32;;
18387;SDS011;9320;50.256;19.026;2023-05-29T09:58:15;12.38;;;5.10;;
18387;SDS011;9320;50.256;19.026;2023-05-29T10:00:44;10.45;;;5.15;;
18387;SDS011;9320;50.256;19.026;2023-05-29T10:03:14;11.10;;;5.65;;
18387;SDS011;9320;50.256;19.026;2023-05-29T10:05:43;6.53;;;5.68;;
18387;SDS011;9320;50.256;19.026;2023-05-29T10:08:15;10.25;;;5.50;;
18387;SDS011;9320;50.256;19.026;2023-05-29T10:10:45;10.15;;;5.35;;
18387;SDS011;9320;50.256;19.026;2023-05-29T10:13:16;9.10;;;6.00;;
18387;SDS011;9320;50.256;19.026;2023-05-29T10:15:45;12.18;;;6.35;;
18387;SDS011;9320;50.256;19.026;2023-05-29T10:18:20;13.05;;;6.70;;
18387;SDS011;9320;50.256;19.026;2023-05-29T10:20:51;11.20;;;6.10;;
18387;SDS011;9320;50.256;19.026;2023-05-29T10:23:25;9.02;;;5.63;;
18387;SDS011;9320;50.256;19.026;2023-05-29T10:26:03;11.95;;;6.20;;
18387;SDS011;9320;50.256;19.026;2023-05-29T10:28:48;10.93;;;5.68;;
18387;SDS011;9320;50.256;19.026;2023-05-29T10:31:24;11.18;;;5.80;;
18387;SDS011;9320;50.256;19.026;2023-05-29T10:34:00;11.43;;;6.65;;
18387;SDS011;9320;50.256;19.026;2023-05-29T10:36:38;12.65;;;6.38;;
18387;SDS011;9320;50.256;19.026;2023-05-29T10:39:11;11.00;;;6.75;;
18387;SDS011;9320;50.256;19.026;2023-05-29T10:41:39;12.60;;;6.30;;
18387;SDS011;9320;50.256;19.026;2023-05-29T10:47:12;12.25;;;6.88;;
18387;SDS011;9320;50.256;19.026;2023-05-29T10:49:51;11.20;;;6.45;;
18387;SDS011;9320;50.256;19.026;2023-05-29T10:52:19;9.40;;;6.30;;
18387;SDS011;9320;50.256;19.026;2023-05-29T10:54:52;11.35;;;6.25;;
18387;SDS011;9320;50.256;19.026;2023-05-29T10:57:21;9.48;;;6.53;;
18387;SDS011;9320;50.256;19.026;2023-05-29T11:00:03;12.02;;;7.50;;
18387;SDS011;9320;50.256;19.026;2023-05-29T11:02:40;8.32;;;6.38;;
18387;SDS011;9320;50.256;19.026;2023-05-29T11:05:22;9.38;;;6.15;;
18387;SDS011;9320;50.256;19.026;2023-05-29T11:07:57;12.88;;;6.47;;
18387;SDS011;9320;50.256;19.026;2023-05-29T11:10:43;11.52;;;6.15;;
18387;SDS011;9320;50.256;19.026;2023-05-29T11:13:22;12.05;;;6.22;;
18387;SDS011;9320;50.256;19.026;2023-05-29T11:16:05;13.48;;;7.05;;
18387;SDS011;9320;50.256;19.026;2023-05-29T11:18:39;10.40;;;6.28;;
18387;SDS011;9320;50.256;19.026;2023-05-29T11:21:21;10.88;;;6.93;;
18387;SDS011;9320;50.256;19.026;2023-05-29T11:23:57;12.18;;;6.80;;
18387;SDS011;9320;50.256;19.026;2023-05-29T11:26:33;13.52;;;6.85;;
18387;SDS011;9320;50.256;19.026;2023-05-29T11:29:04;11.07;;;6.00;;
18387;SDS011;9320;50.256;19.026;2023-05-29T11:31:37;10.10;;;5.70;;
18387;SDS011;9320;50.256;19.026;2023-05-29T11:34:10;13.10;;;6.32;;
18387;SDS011;9320;50.256;19.026;2023-05-29T11:36:42;9.57;;;6.30;;
18387;SDS011;9320;50.256;19.026;2023-05-29T11:39:10;9.10;;;6.10;;
18387;SDS011;9320;50.256;19.026;2023-05-29T11:41:39;7.57;;;5.80;;
18387;SDS011;9320;50.256;19.026;2023-05-29T11:44:07;10.45;;;5.82;;
18387;SDS011;9320;50.256;19.026;2023-05-29T11:46:35;8.63;;;5.88;;
18387;SDS011;9320;50.256;19.026;2023-05-29T11:49:03;11.20;;;6.05;;
18387;SDS011;9320;50.256;19.026;2023-05-29T11:51:33;12.85;;;6.20;;
18387;SDS011;9320;50.256;19.026;2023-05-29T11:54:01;10.73;;;5.97;;
18387;SDS011;9320;50.256;19.026;2023-05-29T11:56:29;12.65;;;6.07;;
18387;SDS011;9320;50.256;19.026;2023-05-29T11:58:58;8.38;;;5.47;;
18387;SDS011;9320;50.256;19.026;2023-05-29T12:01:27;18.40;;;6.47;;
18387;SDS011;9320;50.256;19.026;2023-05-29T12:03:56;14.05;;;6.13;;
18387;SDS011;9320;50.256;19.026;2023-05-29T12:06:30;13.60;;;6.03;;
18387;SDS011;9320;50.256;19.026;2023-05-29T12:09:02;8.70;;;5.93;;
18387;SDS011;9320;50.256;19.026;2023-05-29T12:11:31;10.48;;;6.10;;
18387;SDS011;9320;50.256;19.026;2023-05-29T12:14:01;13.90;;;5.88;;
18387;SDS011;9320;50.256;19.026;2023-05-29T12:16:30;12.43;;;5.88;;
18387;SDS011;9320;50.256;19.026;2023-05-29T12:19:01;14.10;;;6.10;;
18387;SDS011;9320;50.256;19.026;2023-05-29T12:21:29;13.50;;;6.57;;
18387;SDS011;9320;50.256;19.026;2023-05-29T12:23:59;18.38;;;6.07;;
18387;SDS011;9320;50.256;19.026;2023-05-29T12:26:40;12.73;;;6.00;;
18387;SDS011;9320;50.256;19.026;2023-05-29T12:29:09;7.78;;;5.43;;
18387;SDS011;9320;50.256;19.026;2023-05-29T12:31:37;18.52;;;6.60;;
18387;SDS011;9320;50.256;19.026;2023-05-29T12:34:07;10.80;;;6.30;;
18387;SDS011;9320;50.256;19.026;2023-05-29T12:36:39;7.43;;;5.55;;
18387;SDS011;9320;50.256;19.026;2023-05-29T12:39:09;10.38;;;6.35;;
18387;SDS011;9320;50.256;19.026;2023-05-29T12:41:37;8.25;;;5.47;;
18387;SDS011;9320;50.256;19.026;2023-05-29T12:44:07;9.23;;;6.22;;
18387;SDS011;9320;50.256;19.026;2023-05-29T12:46:35;11.68;;;5.72;;
18387;SDS011;9320;50.256;19.026;2023-05-29T12:49:11;7.47;;;5.70;;
18387;SDS011;9320;50.256;19.026;2023-05-29T12:51:40;9.32;;;6.10;;
18387;SDS011;9320;50.256;19.026;2023-05-29T12:54:10;9.50;;;5.60;;
18387;SDS011;9320;50.256;19.026;2023-05-29T12:56:39;14.73;;;5.82;;
18387;SDS011;9320;50.256;19.026;2023-05-29T12:59:07;10.05;;;6.00;;
18387;SDS011;9320;50.256;19.026;2023-05-29T13:01:35;10.20;;;5.80;;
18387;SDS011;9320;50.256;19.026;2023-05-29T13:04:05;7.85;;;5.70;;
18387;SDS011;9320;50.256;19.026;2023-05-29T13:06:34;13.93;;;6.20;;
18387;SDS011;9320;50.256;19.026;2023-05-29T13:09:03;10.43;;;5.65;;
18387;SDS011;9320;50.256;19.026;2023-05-29T13:11:34;8.25;;;6.50;;
18387;SDS011;9320;50.256;19.026;2023-05-29T13:14:04;13.88;;;5.63;;
18387;SDS011;9320;50.256;19.026;2023-05-29T13:16:32;8.25;;;5.72;;
18387;SDS011;9320;50.256;19.026;2023-05-29T13:19:01;9.05;;;5.90;;
18387;SDS011;9320;50.256;19.026;2023-05-29T13:21:29;12.43;;;5.70;;
18387;SDS011;9320;50.256;19.026;2023-05-29T13:23:58;15.27;;;6.68;;
18387;SDS011;9320;50.256;19.026;2023-05-29T13:26:26;9.85;;;6.90;;
18387;SDS011;9320;50.256;19.026;2023-05-29T13:28:56;12.10;;;6.43;;
18387;SDS011;9320;50.256;19.026;2023-05-29T13:31:24;9.23;;;5.90;;
18387;SDS011;9320;50.256;19.026;2023-05-29T13:33:52;8.57;;;5.40;;
18387;SDS011;9320;50.256;19.026;2023-05-29T13:36:20;10.98;;;5.70;;
18387;SDS011;9320;50.256;19.026;2023-05-29T13:38:48;6.88;;;5.30;;
18387;SDS011;9320;50.256;19.026;2023-05-29T13:41:16;10.80;;;5.45;;
18387;SDS011;9320;50.256;19.026;2023-05-29T13:43:44;9.48;;;5.65;;
18387;SDS011;9320;50.256;19.026;2023-05-29T13:46:14;10.13;;;5.88;;
18387;SDS011;9320;50.256;19.026;2023-05-29T13:48:42;10.02;;;5.80;;
18387;SDS011;9320;50.256;19.026;2023-05-29T13:51:10;10.98;;;6.10;;
18387;SDS011;9320;50.256;19.026;2023-05-29T13:53:38;12.15;;;5.72;;
18387;SDS011;9320;50.256;19.026;2023-05-29T13:56:06;8.43;;;5.55;;
18387;SDS011;9320;50.256;19.026;2023-05-29T13:58:34;10.48;;;5.60;;
18387;SDS011;9320;50.256;19.026;2023-05-29T14:01:02;8.60;;;5.50;;
18387;SDS011;9320;50.256;19.026;2023-05-29T14:03:32;10.13;;;6.03;;
18387;SDS011;9320;50.256;19.026;2023-05-29T14:06:00;8.93;;;5.85;;
18387;SDS011;9320;50.256;19.026;2023-05-29T14:08:31;15.10;;;6.03;;
18387;SDS011;9320;50.256;19.026;2023-05-29T14:10:59;11.98;;;5.60;;
18387;SDS011;9320;50.256;19.026;2023-05-29T14:13:27;8.30;;;5.90;;
18387;SDS011;9320;50.256;19.026;2023-05-29T14:15:55;10.80;;;6.05;;
18387;SDS011;9320;50.256;19.026;2023-05-29T14:18:24;7.72;;;5.50;;
18387;SDS011;9320;50.256;19.026;2023-05-29T14:20:53;10.18;;;5.38;;
18387;SDS011;9320;50.256;19.026;2023-05-29T14:23:21;10.88;;;5.95;;
18387;SDS011;9320;50.256;19.026;2023-05-29T14:25:50;8.32;;;5.68;;
18387;SDS011;9320;50.256;19.026;2023-05-29T14:28:19;7.40;;;5.32;;
18387;SDS011;9320;50.256;19.026;2023-05-29T14:30:47;11.93;;;5.80;;
18387;SDS011;9320;50.256;19.026;2023-05-29T14:33:15;7.70;;;5.47;;
18387;SDS011;9320;50.256;19.026;2023-05-29T14:35:43;8.20;;;4.97;;
18387;SDS011;9320;50.256;19.026;2023-05-29T14:38:12;7.57;;;5.70;;
18387;SDS011;9320;50.256;19.026;2023-05-29T14:40:40;7.97;;;5.32;;
18387;SDS011;9320;50.256;19.026;2023-05-29T14:43:09;9.20;;;5.50;;
18387;SDS011;9320;50.256;19.026;2023-05-29T14:45:37;11.63;;;5.72;;
18387;SDS011;9320;50.256;19.026;2023-05-29T14:48:05;7.60;;;5.05;;
18387;SDS011;9320;50.256;19.026;2023-05-29T14:50:33;6.80;;;5.55;;
18387;SDS011;9320;50.256;19.026;2023-05-29T14:53:02;9.20;;;5.60;;